M.o.m. — WDE6166 — position and weather

sailwx.info

Track history (hours):
 
Tides and Currents Weather Stations Pressure Air Temp Water Temp Dewpoint Dewpoint Depression Visibility Wind Speed Wind Dir Waves Ship Positions

M.o.m.

Owner: Anderson, Carl W, Lopez Island, WA. More information available from US FCC via Universal Licensing System and Coast Guard Vessel Documentation Center.

Last reported at 2017-May-10 19:39 UTC. Time now 2017-May-26 13:18 UTC.
Position N 51°54' W 127°55'.
Warning: this ship's position is 15 days out of date.

Length 11 m.

Type: Sailing vessel. MMSI: 367376770.

Date/timePositionNaut miles runAvg speedWind from/ knotsBaromVisibWave heightAir tempDewpointWater temp
2017-May-10 19:39N 51°54' W 127°55'3 6.2
2017-May-10 19:13N 51°51' W 127°55'1 6.1
2017-May-10 18:59N 51°49' W 127°55'3 6.1
2017-May-10 18:30N 51°47' W 127°54'3 6.1
2017-May-10 18:00N 51°43' W 127°54'3 6.1
2017-May-10 17:30N 51°40' W 127°53'3 6.2
2017-May-10 17:00N 51°37' W 127°53'3 6.3
2017-May-10 16:30N 51°35' W 127°51'3 6.3
2017-May-10 15:59N 51°31' W 127°49'3 6.2
2017-May-10 15:30N 51°29' W 127°47'1 0.0
2017-May-09 22:47N 51°28' W 127°46'21 5.1
2017-May-09 18:34N 51°07' W 127°45'0 5.6
2017-May-09 18:30N 51°07' W 127°44'3 6.3
2017-May-09 17:57N 51°05' W 127°40'3 1.7
2017-May-09 16:07N 51°04' W 127°35'0 0.0
2017-May-07 20:09N 51°04' W 127°35'1 3.3
2017-May-07 19:56N 51°04' W 127°36'2 5.5
2017-May-07 19:30N 51°02' W 127°34'3 6.4
2017-May-07 19:00N 50°59' W 127°32'3 6.3
2017-May-07 18:29N 50°56' W 127°30'3 5.8
2017-May-07 18:00N 50°53' W 127°28'3 5.7
2017-May-07 17:30N 50°51' W 127°25'3 6.2
2017-May-07 17:00N 50°48' W 127°23'  
2017-May-02 22:43N 50°16' W 125°14'1 4.9
2017-May-02 22:30N 50°16' W 125°12'3 6.3
2017-May-02 22:00N 50°14' W 125°09'2 3.2
2017-May-02 21:30N 50°12' W 125°08'2 3.2
2017-May-02 21:00N 50°10' W 125°09'3 6.3
2017-May-02 20:30N 50°07' W 125°08'3 6.6
2017-May-02 20:00N 50°04' W 125°06'3 6.5
2017-May-02 19:28N 50°01' W 125°03'3 6.6
2017-May-02 19:00N 49°59' W 124°60'4 6.7
2017-May-02 18:28N 49°57' W 124°56'3 6.5
2017-May-02 18:00N 49°54' W 124°53'3 6.8
2017-May-02 17:30N 49°52' W 124°49'4 7.0
2017-May-02 17:00N 49°49' W 124°46'3 6.6
2017-May-02 16:29N 49°47' W 124°42'  
Track history (hours):
 
Tides and Currents Weather Stations Pressure Air Temp Water Temp Dewpoint Dewpoint Depression Visibility Wind Speed Wind Dir Waves Ship Positions

M.o.m.

Owner: Anderson, Carl W, Lopez Island, WA. More information available from US FCC via Universal Licensing System and Coast Guard Vessel Documentation Center.

Last reported at 2017-May-10 19:39 UTC. Time now 2017-May-26 13:18 UTC.
Position N 51°54' W 127°55'.
Warning: this ship's position is 15 days out of date.

Length 11 m.

Type: Sailing vessel. MMSI: 367376770.

Date/timePositionNaut miles runAvg speedWind from/ knotsBaromVisibWave heightAir tempDewpointWater temp
2017-May-10 19:39N 51°54' W 127°55'3 6.2
2017-May-10 19:13N 51°51' W 127°55'1 6.1
2017-May-10 18:59N 51°49' W 127°55'3 6.1
2017-May-10 18:30N 51°47' W 127°54'3 6.1
2017-May-10 18:00N 51°43' W 127°54'3 6.1
2017-May-10 17:30N 51°40' W 127°53'3 6.2
2017-May-10 17:00N 51°37' W 127°53'3 6.3
2017-May-10 16:30N 51°35' W 127°51'3 6.3
2017-May-10 15:59N 51°31' W 127°49'3 6.2
2017-May-10 15:30N 51°29' W 127°47'1 0.0
2017-May-09 22:47N 51°28' W 127°46'21 5.1
2017-May-09 18:34N 51°07' W 127°45'0 5.6
2017-May-09 18:30N 51°07' W 127°44'3 6.3
2017-May-09 17:57N 51°05' W 127°40'3 1.7
2017-May-09 16:07N 51°04' W 127°35'0 0.0
2017-May-07 20:09N 51°04' W 127°35'1 3.3
2017-May-07 19:56N 51°04' W 127°36'2 5.5
2017-May-07 19:30N 51°02' W 127°34'3 6.4
2017-May-07 19:00N 50°59' W 127°32'3 6.3
2017-May-07 18:29N 50°56' W 127°30'3 5.8
2017-May-07 18:00N 50°53' W 127°28'3 5.7
2017-May-07 17:30N 50°51' W 127°25'3 6.2
2017-May-07 17:00N 50°48' W 127°23'  
2017-May-02 22:43N 50°16' W 125°14'1 4.9
2017-May-02 22:30N 50°16' W 125°12'3 6.3
2017-May-02 22:00N 50°14' W 125°09'2 3.2
2017-May-02 21:30N 50°12' W 125°08'2 3.2
2017-May-02 21:00N 50°10' W 125°09'3 6.3
2017-May-02 20:30N 50°07' W 125°08'3 6.6
2017-May-02 20:00N 50°04' W 125°06'3 6.5
2017-May-02 19:28N 50°01' W 125°03'3 6.6
2017-May-02 19:00N 49°59' W 124°60'4 6.7
2017-May-02 18:28N 49°57' W 124°56'3 6.5
2017-May-02 18:00N 49°54' W 124°53'3 6.8
2017-May-02 17:30N 49°52' W 124°49'4 7.0
2017-May-02 17:00N 49°49' W 124°46'3 6.6
2017-May-02 16:29N 49°47' W 124°42'  

Dump ship's entire track history